createdAt,value
2018-06-09T00:01:17.694Z,68.80
2018-06-09T00:03:44.545Z,69.60
2018-06-09T00:06:11.340Z,68.80
2018-06-09T00:08:38.732Z,69.60
2018-06-09T00:11:05.452Z,68.90
2018-06-09T00:13:32.238Z,68.90
2018-06-09T00:15:59.712Z,68.90
2018-06-09T00:18:26.649Z,68.90
2018-06-09T00:20:54.073Z,68.90
2018-06-09T00:23:21.746Z,69.00
2018-06-09T00:25:49.891Z,69.00
2018-06-09T00:28:16.662Z,68.90
2018-06-09T00:30:43.373Z,68.90
2018-06-09T00:33:10.792Z,69.00
2018-06-09T00:35:37.924Z,68.90
2018-06-09T00:38:04.747Z,69.00
2018-06-09T00:40:31.495Z,69.00
2018-06-09T00:42:58.491Z,69.80
2018-06-09T00:45:25.303Z,69.00
2018-06-09T00:47:52.058Z,69.10
2018-06-09T00:50:19.509Z,69.10
2018-06-09T00:52:46.350Z,69.10
2018-06-09T00:55:13.152Z,69.10
2018-06-09T00:57:40.405Z,69.10
2018-06-09T01:00:07.820Z,69.10
2018-06-09T01:02:34.516Z,69.20
2018-06-09T01:05:01.223Z,69.20
2018-06-09T01:07:27.903Z,69.20
2018-06-09T01:09:55.557Z,69.20
2018-06-09T01:12:38.025Z,69.20
2018-06-09T01:17:53.779Z,69.30
2018-06-09T01:20:36.400Z,69.20
2018-06-09T01:23:04.179Z,69.20
2018-06-09T01:25:30.985Z,69.20
2018-06-09T01:27:57.833Z,69.20
2018-06-09T01:30:24.813Z,69.30
2018-06-09T01:32:51.687Z,69.30
2018-06-09T01:35:18.427Z,69.30
2018-06-09T01:37:45.770Z,69.30
2018-06-09T01:40:13.934Z,69.30
2018-06-09T01:42:41.343Z,69.40
2018-06-09T01:45:08.129Z,69.40
2018-06-09T01:47:34.957Z,69.50
2018-06-09T01:50:01.941Z,69.40
2018-06-09T01:52:29.372Z,69.40
2018-06-09T01:54:56.074Z,69.50
2018-06-09T01:57:22.786Z,69.50
2018-06-09T01:59:50.438Z,69.50
2018-06-09T02:02:17.294Z,69.50
2018-06-09T02:04:44.234Z,69.60
2018-06-09T02:07:10.998Z,69.50
2018-06-09T02:09:37.818Z,69.40
2018-06-09T02:12:04.760Z,69.50
2018-06-09T02:14:31.596Z,69.60
2018-06-09T02:16:58.968Z,69.60
2018-06-09T02:19:25.862Z,69.70
2018-06-09T02:21:52.762Z,69.70
2018-06-09T02:24:19.520Z,69.70
2018-06-09T02:26:46.960Z,69.70
2018-06-09T02:29:13.906Z,69.70
2018-06-09T02:31:40.710Z,69.60
2018-06-09T02:34:07.532Z,69.70
2018-06-09T02:36:34.930Z,70.40
2018-06-09T02:39:01.686Z,69.80
2018-06-09T02:41:28.846Z,69.80
2018-06-09T02:43:55.894Z,69.80
2018-06-09T02:46:22.648Z,69.80
2018-06-09T02:48:49.358Z,69.80
2018-06-09T02:51:16.217Z,69.80
2018-06-09T02:53:42.970Z,69.80
2018-06-09T02:56:09.920Z,70.60
2018-06-09T02:58:37.035Z,69.80
2018-06-09T03:01:03.954Z,69.80
2018-06-09T03:03:32.242Z,69.90
2018-06-09T03:05:58.966Z,69.90
2018-06-09T03:08:25.856Z,69.90
2018-06-09T03:13:22.594Z,69.30
2018-06-09T03:15:50.736Z,70.00
2018-06-09T03:18:17.547Z,70.70
2018-06-09T03:20:44.934Z,70.00
2018-06-09T03:23:11.662Z,70.70
2018-06-09T03:25:38.568Z,70.00
2018-06-09T03:28:05.553Z,70.00
2018-06-09T03:30:34.122Z,70.00
2018-06-09T03:33:01.456Z,70.10
2018-06-09T03:35:28.179Z,70.10
2018-06-09T03:37:55.099Z,70.10
2018-06-09T03:40:22.020Z,70.10
2018-06-09T03:42:48.733Z,70.10
2018-06-09T03:45:15.713Z,70.00
2018-06-09T03:47:42.539Z,70.20
2018-06-09T03:50:09.308Z,70.10
2018-06-09T03:52:36.243Z,70.30
2018-06-09T03:55:02.945Z,70.10
2018-06-09T03:57:30.827Z,70.10
2018-06-09T04:02:26.050Z,70.30
2018-06-09T04:04:53.526Z,70.20
2018-06-09T04:07:20.591Z,70.20
2018-06-09T04:09:47.433Z,71.00
2018-06-09T04:14:42.161Z,70.30
2018-06-09T04:17:09.030Z,70.30
2018-06-09T04:19:35.671Z,70.30
2018-06-09T04:22:02.483Z,70.30
2018-06-09T04:24:29.213Z,70.30
2018-06-09T04:26:56.017Z,70.30
2018-06-09T04:29:22.918Z,70.30
2018-06-09T04:31:49.732Z,70.40
2018-06-09T04:34:16.555Z,70.40
2018-06-09T04:36:43.559Z,70.40
2018-06-09T04:39:10.923Z,70.40
2018-06-09T04:41:38.399Z,70.40
2018-06-09T04:44:05.245Z,70.40
2018-06-09T04:46:32.154Z,70.50
2018-06-09T04:48:59.323Z,70.50
2018-06-09T04:51:26.144Z,70.50
2018-06-09T04:53:53.201Z,70.50
2018-06-09T04:56:19.935Z,70.60
2018-06-09T04:58:46.816Z,70.60
2018-06-09T05:01:13.836Z,70.60
2018-06-09T05:03:40.752Z,70.30
2018-06-09T05:06:08.345Z,70.60
2018-06-09T05:08:35.695Z,70.70
2018-06-09T05:11:03.104Z,70.70
2018-06-09T05:13:30.000Z,70.70
2018-06-09T05:16:05.159Z,70.70
2018-06-09T05:18:41.888Z,70.90
2018-06-09T05:21:12.461Z,70.50
2018-06-09T05:23:43.286Z,71.60
2018-06-09T05:28:45.498Z,70.80
2018-06-09T05:31:13.400Z,70.80
2018-06-09T05:33:42.986Z,70.80
2018-06-09T05:36:11.126Z,70.80
2018-06-09T05:41:06.099Z,70.90
2018-06-09T05:43:35.948Z,70.90
2018-06-09T05:46:06.638Z,70.90
2018-06-09T05:48:37.706Z,70.90
2018-06-09T05:51:05.578Z,70.90
2018-06-09T05:53:32.539Z,70.90
2018-06-09T05:55:59.844Z,71.10
2018-06-09T05:58:27.142Z,71.00
2018-06-09T06:00:54.007Z,71.00
2018-06-09T06:03:20.858Z,71.00
2018-06-09T06:05:47.558Z,71.00
2018-06-09T06:08:14.506Z,71.10
2018-06-09T06:10:41.226Z,71.10
2018-06-09T06:13:08.027Z,71.10
2018-06-09T06:15:34.886Z,71.10
2018-06-09T06:18:02.220Z,71.20
2018-06-09T06:20:29.470Z,71.10
2018-06-09T06:22:56.173Z,71.20
2018-06-09T06:25:23.069Z,71.30
2018-06-09T06:27:49.835Z,71.30
2018-06-09T06:30:16.599Z,71.30
2018-06-09T06:32:43.373Z,71.30
2018-06-09T06:35:10.630Z,71.40
2018-06-09T06:37:38.237Z,71.40
2018-06-09T06:40:05.171Z,71.40
2018-06-09T06:42:31.899Z,71.40
2018-06-09T06:44:58.755Z,71.40
2018-06-09T06:47:25.711Z,71.40
2018-06-09T06:49:52.606Z,71.40
2018-06-09T06:54:49.472Z,71.50
2018-06-09T06:57:16.330Z,71.40
2018-06-09T06:59:43.320Z,71.40
2018-06-09T07:02:10.263Z,70.90
2018-06-09T07:04:37.356Z,71.50
2018-06-09T07:07:04.163Z,71.50
2018-06-09T07:09:30.891Z,71.40
2018-06-09T07:11:58.143Z,71.50
2018-06-09T07:14:25.088Z,71.50
2018-06-09T07:16:51.929Z,71.50
2018-06-09T07:19:18.977Z,71.60
2018-06-09T07:21:45.912Z,71.60
2018-06-09T07:24:13.864Z,71.60
2018-06-09T07:26:40.805Z,71.60
2018-06-09T07:29:07.707Z,71.60
2018-06-09T07:31:34.449Z,71.60
2018-06-09T07:34:01.246Z,71.60
2018-06-09T07:36:28.082Z,71.70
2018-06-09T07:38:54.904Z,71.70
2018-06-09T07:41:21.971Z,72.50
2018-06-09T07:43:49.778Z,71.70
2018-06-09T07:46:16.674Z,71.70
2018-06-09T07:48:44.394Z,71.80
2018-06-09T07:51:11.189Z,71.50
2018-06-09T07:56:06.632Z,71.80
2018-06-09T07:58:34.032Z,71.80
2018-06-09T08:01:02.155Z,71.80
2018-06-09T08:03:29.556Z,71.80
2018-06-09T08:05:56.471Z,71.60
2018-06-09T08:08:23.420Z,71.90
2018-06-09T08:10:50.294Z,71.90
2018-06-09T08:13:17.032Z,71.90
2018-06-09T08:15:43.834Z,71.90
2018-06-09T08:18:10.754Z,71.90
2018-06-09T08:20:38.269Z,71.90
2018-06-09T08:23:05.566Z,71.90
2018-06-09T08:25:32.389Z,71.90
2018-06-09T08:27:59.531Z,72.10
2018-06-09T08:30:27.867Z,72.00
2018-06-09T08:32:55.288Z,72.00
2018-06-09T08:35:23.019Z,72.10
2018-06-09T08:37:50.536Z,72.10
2018-06-09T08:40:17.734Z,72.00
2018-06-09T08:42:44.557Z,71.90
2018-06-09T08:45:11.485Z,72.10
2018-06-09T08:47:38.487Z,72.10
2018-06-09T08:50:05.903Z,72.10
2018-06-09T08:52:32.863Z,72.10
2018-06-09T08:54:59.841Z,72.10
2018-06-09T08:57:26.555Z,72.80
2018-06-09T08:59:53.333Z,72.10
2018-06-09T09:02:20.270Z,72.10
2018-06-09T09:04:47.908Z,72.10
2018-06-09T09:07:14.698Z,72.10
2018-06-09T09:09:42.238Z,72.10
2018-06-09T09:12:09.735Z,72.10
2018-06-09T09:14:36.994Z,72.10
2018-06-09T09:17:03.731Z,72.10
2018-06-09T09:19:31.099Z,72.10
2018-06-09T09:21:58.142Z,72.10
2018-06-09T09:24:25.580Z,72.00
2018-06-09T09:26:52.768Z,72.10
2018-06-09T09:29:19.756Z,72.00
2018-06-09T09:31:46.648Z,72.10
2018-06-09T09:34:14.272Z,72.90
2018-06-09T09:36:41.438Z,72.10
2018-06-09T09:39:08.325Z,72.10
2018-06-09T09:41:35.183Z,72.10
2018-06-09T09:46:29.840Z,72.10
2018-06-09T09:48:56.566Z,72.10
2018-06-09T09:51:23.498Z,72.10
2018-06-09T09:53:50.295Z,72.10
2018-06-09T09:56:17.005Z,72.00
2018-06-09T09:58:45.096Z,72.10
2018-06-09T10:01:12.598Z,72.10
2018-06-09T10:03:39.475Z,72.10
2018-06-09T10:06:06.858Z,72.10
2018-06-09T10:08:33.518Z,72.10
2018-06-09T10:11:00.193Z,72.10
2018-06-09T10:13:27.133Z,72.10
2018-06-09T10:15:53.845Z,72.10
2018-06-09T10:18:20.559Z,72.10
2018-06-09T10:20:47.246Z,72.00
2018-06-09T10:23:13.944Z,72.10
2018-06-09T10:25:41.197Z,71.90
2018-06-09T10:28:08.553Z,72.10
2018-06-09T10:30:35.998Z,72.10
2018-06-09T10:33:02.685Z,72.10
2018-06-09T10:35:29.373Z,72.10
2018-06-09T10:37:56.709Z,72.10
2018-06-09T10:40:23.642Z,72.10
2018-06-09T10:42:50.322Z,72.60
2018-06-09T10:45:17.861Z,72.10
2018-06-09T10:47:44.521Z,72.20
2018-06-09T10:50:11.361Z,72.10
2018-06-09T10:52:38.083Z,72.10
2018-06-09T10:55:04.913Z,72.10
2018-06-09T10:57:31.674Z,72.10
2018-06-09T10:59:58.305Z,72.10
2018-06-09T11:02:25.357Z,72.10
2018-06-09T11:04:52.208Z,72.10
2018-06-09T11:07:19.629Z,72.10
2018-06-09T11:09:47.190Z,72.00
2018-06-09T11:12:13.995Z,72.10
2018-06-09T11:14:40.858Z,72.10
2018-06-09T11:17:07.885Z,72.00
2018-06-09T11:19:34.586Z,72.00
2018-06-09T11:22:01.449Z,72.00
2018-06-09T11:24:28.266Z,72.00
2018-06-09T11:26:55.569Z,72.00
2018-06-09T11:29:23.151Z,72.00
2018-06-09T11:31:50.029Z,71.90
2018-06-09T11:34:18.342Z,71.90
2018-06-09T11:36:45.208Z,71.90
2018-06-09T11:39:12.643Z,71.90
2018-06-09T11:41:39.710Z,71.80
2018-06-09T11:44:06.592Z,71.80
2018-06-09T11:46:33.449Z,71.80
2018-06-09T11:49:00.158Z,71.70
2018-06-09T11:51:27.205Z,71.70
2018-06-09T11:53:54.719Z,71.70
2018-06-09T11:56:22.169Z,71.70
2018-06-09T11:58:48.949Z,71.70
2018-06-09T12:01:16.720Z,71.60
2018-06-09T12:03:43.536Z,71.60
2018-06-09T12:06:10.530Z,71.50
2018-06-09T12:08:37.274Z,71.50
2018-06-09T12:11:04.123Z,71.40
2018-06-09T12:13:30.786Z,71.50
2018-06-09T12:15:57.665Z,71.40
2018-06-09T12:18:25.015Z,71.40
2018-06-09T12:20:51.871Z,71.40
2018-06-09T12:23:18.583Z,71.30
2018-06-09T12:25:45.358Z,71.30
2018-06-09T12:28:12.054Z,71.20
2018-06-09T12:30:38.849Z,71.20
2018-06-09T12:35:33.053Z,71.20
2018-06-09T12:37:59.925Z,71.10
2018-06-09T12:40:26.813Z,71.10
2018-06-09T12:42:53.855Z,71.00
2018-06-09T12:45:20.636Z,71.00
2018-06-09T12:47:47.419Z,71.00
2018-06-09T12:50:14.112Z,70.90
2018-06-09T12:52:42.963Z,70.90
2018-06-09T12:57:38.138Z,70.90
2018-06-09T13:00:06.249Z,70.80
2018-06-09T13:02:32.977Z,70.80
2018-06-09T13:04:59.653Z,70.70
2018-06-09T13:07:26.441Z,70.70
2018-06-09T13:09:53.159Z,70.60
2018-06-09T13:12:20.584Z,71.40
2018-06-09T13:17:15.199Z,70.60
2018-06-09T13:19:41.973Z,71.30
2018-06-09T13:22:08.838Z,70.60
2018-06-09T13:24:35.887Z,70.50
2018-06-09T13:27:02.609Z,70.50
2018-06-09T13:31:56.743Z,70.40
2018-06-09T13:34:23.446Z,70.40
2018-06-09T13:36:50.310Z,70.30
2018-06-09T13:39:17.835Z,70.10
2018-06-09T13:41:44.557Z,70.30
2018-06-09T13:44:11.468Z,70.20
2018-06-09T13:46:39.033Z,70.20
2018-06-09T13:49:05.866Z,70.10
2018-06-09T13:51:32.570Z,70.10
2018-06-09T13:54:00.020Z,70.10
2018-06-09T13:56:26.909Z,70.00
2018-06-09T13:58:53.756Z,70.00
2018-06-09T14:01:20.566Z,70.00
2018-06-09T14:03:48.068Z,69.90
2018-06-09T14:06:14.899Z,69.90
2018-06-09T14:08:41.699Z,70.00
2018-06-09T14:11:08.545Z,69.90
2018-06-09T14:16:02.661Z,69.80
2018-06-09T14:18:29.483Z,69.70
2018-06-09T14:20:56.218Z,69.70
2018-06-09T14:23:23.097Z,69.70
2018-06-09T14:25:50.555Z,69.70
2018-06-09T14:28:17.402Z,69.70
2018-06-09T14:30:44.263Z,69.70
2018-06-09T14:33:11.017Z,69.60
2018-06-09T14:35:37.868Z,69.60
2018-06-09T14:38:04.591Z,69.60
2018-06-09T14:40:31.967Z,69.50
2018-06-09T14:42:58.621Z,69.50
2018-06-09T14:45:25.367Z,69.50
2018-06-09T14:47:52.185Z,69.50
2018-06-09T14:50:19.467Z,69.50
2018-06-09T14:52:46.261Z,69.50
2018-06-09T14:55:13.116Z,69.40
2018-06-09T14:57:40.517Z,69.40
2018-06-09T15:00:07.469Z,69.30
2018-06-09T15:02:34.253Z,69.30
2018-06-09T15:05:01.197Z,69.30
2018-06-09T15:07:27.983Z,69.20
2018-06-09T15:09:54.818Z,69.20
2018-06-09T15:12:21.623Z,69.30
2018-06-09T15:14:48.372Z,69.20
2018-06-09T15:17:15.178Z,69.20
2018-06-09T15:19:41.947Z,69.20
2018-06-09T15:22:08.766Z,69.10
2018-06-09T15:24:35.534Z,69.20
2018-06-09T15:27:02.358Z,69.10
2018-06-09T15:29:29.098Z,69.10
2018-06-09T15:31:57.189Z,69.00
2018-06-09T15:34:24.026Z,69.10
2018-06-09T15:36:50.934Z,69.00
2018-06-09T15:39:17.768Z,69.00
2018-06-09T15:41:44.624Z,69.00
2018-06-09T15:44:11.376Z,68.90
2018-06-09T15:46:39.038Z,68.90
2018-06-09T15:49:06.067Z,69.00
2018-06-09T15:51:32.894Z,68.90
2018-06-09T15:53:59.626Z,69.10
2018-06-09T15:56:26.439Z,68.90
2018-06-09T15:58:53.578Z,68.90
2018-06-09T16:01:20.395Z,68.90
2018-06-09T16:06:14.632Z,69.00
2018-06-09T16:08:41.354Z,68.90
2018-06-09T16:11:08.710Z,68.90
2018-06-09T16:13:35.531Z,68.80
2018-06-09T16:16:04.404Z,68.80
2018-06-09T16:18:34.524Z,68.90
2018-06-09T16:21:02.033Z,68.80
2018-06-09T16:23:30.679Z,68.80
2018-06-09T16:25:57.646Z,68.80
2018-06-09T16:28:30.078Z,68.70
2018-06-09T16:31:01.912Z,68.70
2018-06-09T16:33:32.178Z,68.70
2018-06-09T16:35:59.181Z,68.70
2018-06-09T16:38:25.999Z,68.70
2018-06-09T16:40:52.819Z,68.70
2018-06-09T16:43:19.646Z,68.60
2018-06-09T16:48:13.662Z,68.60
2018-06-09T16:50:40.475Z,68.50
2018-06-09T16:53:07.317Z,68.60
2018-06-09T16:55:34.275Z,68.50
2018-06-09T16:58:01.280Z,68.50
2018-06-09T17:00:28.183Z,68.50
2018-06-09T17:02:54.997Z,68.50
2018-06-09T17:05:21.797Z,68.40
2018-06-09T17:07:48.801Z,68.40
2018-06-09T17:10:16.100Z,68.40
2018-06-09T17:12:42.911Z,68.40
2018-06-09T17:15:09.687Z,68.40
2018-06-09T17:17:36.569Z,68.40
2018-06-09T17:22:30.906Z,68.30
2018-06-09T17:24:57.796Z,68.30
2018-06-09T17:27:24.556Z,68.20
2018-06-09T17:29:51.319Z,68.20
2018-06-09T17:32:18.265Z,68.30
2018-06-09T17:34:45.101Z,68.20
2018-06-09T17:37:11.942Z,69.10
2018-06-09T17:39:38.847Z,68.20
2018-06-09T17:42:05.619Z,68.00
2018-06-09T17:44:32.347Z,68.20
2018-06-09T17:46:59.256Z,68.20
2018-06-09T17:49:26.059Z,68.10
2018-06-09T17:51:52.881Z,68.10
2018-06-09T17:54:19.700Z,68.10
2018-06-09T17:56:46.530Z,68.10
2018-06-09T17:59:13.330Z,68.10
2018-06-09T18:01:40.135Z,68.10
2018-06-09T18:04:07.360Z,68.00
2018-06-09T18:06:34.193Z,68.10
2018-06-09T18:09:01.146Z,68.10
2018-06-09T18:11:27.987Z,68.10
2018-06-09T18:13:55.204Z,68.00
2018-06-09T18:16:21.993Z,67.90
2018-06-09T18:18:48.771Z,67.90
2018-06-09T18:21:15.576Z,67.90
2018-06-09T18:23:42.603Z,67.90
2018-06-09T18:26:09.414Z,67.90
2018-06-09T18:28:36.331Z,67.80
2018-06-09T18:31:03.137Z,67.80
2018-06-09T18:33:30.150Z,67.80
2018-06-09T18:35:57.030Z,67.80
2018-06-09T18:38:23.805Z,67.70
2018-06-09T18:40:50.667Z,67.80
2018-06-09T18:43:17.485Z,67.80
2018-06-09T18:45:44.337Z,67.70
2018-06-09T18:48:11.136Z,67.90
2018-06-09T18:50:38.032Z,67.70
2018-06-09T18:53:04.863Z,67.60
2018-06-09T18:55:31.633Z,67.60
2018-06-09T18:57:58.474Z,67.60
2018-06-09T19:00:25.286Z,67.60
2018-06-09T19:02:52.130Z,67.50
2018-06-09T19:05:18.865Z,67.60
2018-06-09T19:07:45.549Z,67.60
2018-06-09T19:10:12.317Z,67.50
2018-06-09T19:12:39.075Z,67.60
2018-06-09T19:15:05.891Z,67.50
2018-06-09T19:17:32.664Z,67.50
2018-06-09T19:19:59.513Z,67.50
2018-06-09T19:22:26.250Z,67.40
2018-06-09T19:24:53.080Z,68.20
2018-06-09T19:27:19.808Z,67.40
2018-06-09T19:29:46.807Z,67.40
2018-06-09T19:32:13.665Z,67.50
2018-06-09T19:34:40.453Z,67.30
2018-06-09T19:37:07.851Z,67.40
2018-06-09T19:39:34.656Z,67.30
2018-06-09T19:42:01.604Z,67.30
2018-06-09T19:44:28.432Z,67.40
2018-06-09T19:46:55.275Z,67.30
2018-06-09T19:49:22.777Z,67.30
2018-06-09T19:51:49.738Z,67.40
2018-06-09T19:54:16.649Z,67.30
2018-06-09T19:56:43.760Z,67.50
2018-06-09T19:59:10.668Z,67.40
2018-06-09T20:01:37.805Z,68.00
2018-06-09T20:04:05.099Z,67.30
2018-06-09T20:06:32.308Z,67.30
2018-06-09T20:08:59.146Z,67.40
2018-06-09T20:11:25.954Z,67.30
2018-06-09T20:13:52.980Z,67.30
2018-06-09T20:16:20.061Z,67.40
2018-06-09T20:18:47.249Z,67.40
2018-06-09T20:21:14.186Z,67.30
2018-06-09T20:23:41.033Z,67.40
2018-06-09T20:26:07.884Z,67.40
2018-06-09T20:28:34.699Z,67.30
2018-06-09T20:31:01.852Z,67.40
2018-06-09T20:33:29.451Z,67.40
2018-06-09T20:35:56.497Z,67.40
2018-06-09T20:38:23.448Z,67.40
2018-06-09T20:40:51.549Z,68.20
2018-06-09T20:43:19.283Z,67.40
2018-06-09T20:45:46.719Z,67.40
2018-06-09T20:48:13.515Z,67.40
2018-06-09T20:50:40.325Z,67.40
2018-06-09T20:53:07.264Z,68.30
2018-06-09T20:55:34.023Z,67.50
2018-06-09T20:58:00.805Z,67.40
2018-06-09T21:00:28.517Z,67.50
2018-06-09T21:02:55.240Z,67.50
2018-06-09T21:05:22.069Z,67.50
2018-06-09T21:07:48.819Z,67.50
2018-06-09T21:10:15.669Z,67.60
2018-06-09T21:12:42.537Z,67.50
2018-06-09T21:17:37.072Z,67.60
2018-06-09T21:20:05.795Z,67.60
2018-06-09T21:22:32.592Z,67.70
2018-06-09T21:24:59.387Z,67.60
2018-06-09T21:27:33.486Z,67.60
2018-06-09T21:30:05.802Z,67.70
2018-06-09T21:32:38.398Z,67.60
2018-06-09T21:35:05.866Z,67.70
2018-06-09T21:37:38.371Z,67.70
2018-06-09T21:40:09.714Z,67.70
2018-06-09T21:42:41.188Z,67.70
2018-06-09T21:45:08.678Z,67.80
2018-06-09T21:47:35.822Z,68.40
2018-06-09T21:50:03.590Z,67.80
2018-06-09T21:52:30.352Z,67.80
2018-06-09T21:54:57.141Z,67.80
2018-06-09T21:57:24.039Z,67.80
2018-06-09T21:59:51.694Z,67.90
2018-06-09T22:02:18.554Z,67.90
2018-06-09T22:04:45.739Z,67.90
2018-06-09T22:07:13.049Z,67.90
2018-06-09T22:09:40.100Z,67.90
2018-06-09T22:12:06.966Z,67.90
2018-06-09T22:14:34.609Z,67.90
2018-06-09T22:17:02.213Z,68.00
2018-06-09T22:19:30.405Z,67.90
2018-06-09T22:21:58.266Z,68.40
2018-06-09T22:24:25.035Z,68.00
2018-06-09T22:26:52.329Z,67.80
2018-06-09T22:29:19.145Z,68.10
2018-06-09T22:34:13.561Z,68.20
2018-06-09T22:36:40.319Z,68.20
2018-06-09T22:39:07.095Z,68.20
2018-06-09T22:41:33.924Z,68.20
2018-06-09T22:44:00.687Z,68.20
2018-06-09T22:46:28.033Z,68.10
2018-06-09T22:48:54.938Z,68.20
2018-06-09T22:51:21.887Z,68.20
2018-06-09T22:53:48.657Z,68.20
2018-06-09T22:56:15.575Z,68.30
2018-06-09T22:58:43.081Z,68.30
2018-06-09T23:01:09.881Z,68.30
2018-06-09T23:03:37.581Z,68.40
2018-06-09T23:06:05.201Z,69.20
2018-06-09T23:08:32.101Z,68.30
2018-06-09T23:10:58.987Z,68.40
2018-06-09T23:13:25.819Z,68.40
2018-06-09T23:15:52.793Z,68.40
2018-06-09T23:18:19.659Z,68.50
2018-06-09T23:20:46.486Z,68.40
2018-06-09T23:23:13.154Z,68.40
2018-06-09T23:25:40.696Z,68.40
2018-06-09T23:28:07.794Z,68.50
2018-06-09T23:30:34.671Z,68.50
2018-06-09T23:33:01.880Z,68.60
2018-06-09T23:35:28.894Z,68.60
2018-06-09T23:37:56.298Z,68.60
2018-06-09T23:40:23.244Z,68.60
2018-06-09T23:42:50.077Z,68.70
2018-06-09T23:45:17.070Z,68.70
2018-06-09T23:47:43.838Z,68.70
2018-06-09T23:50:10.624Z,68.70
2018-06-09T23:52:37.374Z,68.70
2018-06-09T23:55:04.365Z,68.80
2018-06-09T23:57:31.195Z,68.70
2018-06-09T23:59:58.146Z,68.80
